sensor_id;sensor_type;location;lat;lon;timestamp;pressure;altitude;pressure_sealevel;temperature;humidity
54978;BME280;40873;47.522;19.106;2023-04-22T00:01:07;100157.25;;;10.76;90.48
54978;BME280;40873;47.522;19.106;2023-04-22T00:03:34;100151.97;;;10.76;92.36
54978;BME280;40873;47.522;19.106;2023-04-22T00:06:01;100156.63;;;10.72;93.27
54978;BME280;40873;47.522;19.106;2023-04-22T00:08:28;100158.41;;;10.72;92.95
54978;BME280;40873;47.522;19.106;2023-04-22T00:10:55;100150.50;;;10.72;93.67
54978;BME280;40873;47.522;19.106;2023-04-22T00:13:22;100158.72;;;10.67;95.32
54978;BME280;40873;47.522;19.106;2023-04-22T00:15:49;100154.06;;;10.70;93.28
54978;BME280;40873;47.522;19.106;2023-04-22T00:18:17;100156.63;;;10.72;94.03
54978;BME280;40873;47.522;19.106;2023-04-22T00:20:44;100152.75;;;10.63;95.61
54978;BME280;40873;47.522;19.106;2023-04-22T00:23:11;100155.59;;;10.60;95.57
54978;BME280;40873;47.522;19.106;2023-04-22T00:25:39;100157.00;;;10.66;95.53
54978;BME280;40873;47.522;19.106;2023-04-22T00:28:06;100160.88;;;10.60;95.20
54978;BME280;40873;47.522;19.106;2023-04-22T00:30:34;100162.56;;;10.61;96.05
54978;BME280;40873;47.522;19.106;2023-04-22T00:33:01;100155.50;;;10.62;94.61
54978;BME280;40873;47.522;19.106;2023-04-22T00:35:28;100154.56;;;10.63;93.76
54978;BME280;40873;47.522;19.106;2023-04-22T00:37:56;100154.75;;;10.60;95.30
54978;BME280;40873;47.522;19.106;2023-04-22T00:40:23;100152.13;;;10.60;93.88
54978;BME280;40873;47.522;19.106;2023-04-22T00:42:50;100158.25;;;10.60;95.39
54978;BME280;40873;47.522;19.106;2023-04-22T00:45:18;100162.56;;;10.61;94.95
54978;BME280;40873;47.522;19.106;2023-04-22T00:47:47;100152.97;;;10.60;96.09
54978;BME280;40873;47.522;19.106;2023-04-22T00:50:14;100152.97;;;10.60;95.82
54978;BME280;40873;47.522;19.106;2023-04-22T00:52:42;100156.28;;;10.50;96.26
54978;BME280;40873;47.522;19.106;2023-04-22T00:55:10;100156.59;;;10.45;95.95
54978;BME280;40873;47.522;19.106;2023-04-22T00:57:38;100156.28;;;10.35;98.04
54978;BME280;40873;47.522;19.106;2023-04-22T01:00:06;100159.13;;;10.32;98.52
54978;BME280;40873;47.522;19.106;2023-04-22T01:02:36;100156.22;;;10.23;98.47
54978;BME280;40873;47.522;19.106;2023-04-22T01:05:05;100156.66;;;10.15;98.05
54978;BME280;40873;47.522;19.106;2023-04-22T01:07:35;100165.97;;;10.06;97.03
54978;BME280;40873;47.522;19.106;2023-04-22T01:10:03;100164.75;;;9.98;96.36
54978;BME280;40873;47.522;19.106;2023-04-22T01:12:30;100165.69;;;9.97;96.80
54978;BME280;40873;47.522;19.106;2023-04-22T01:14:57;100170.97;;;9.97;96.59
54978;BME280;40873;47.522;19.106;2023-04-22T01:17:24;100165.88;;;9.94;97.07
54978;BME280;40873;47.522;19.106;2023-04-22T01:19:51;100166.72;;;9.94;97.75
54978;BME280;40873;47.522;19.106;2023-04-22T01:22:19;100172.53;;;9.85;98.41
54978;BME280;40873;47.522;19.106;2023-04-22T01:24:46;100174.22;;;9.86;97.65
54978;BME280;40873;47.522;19.106;2023-04-22T01:27:14;100177.91;;;9.83;97.30
54978;BME280;40873;47.522;19.106;2023-04-22T01:29:41;100173.59;;;9.82;97.23
54978;BME280;40873;47.522;19.106;2023-04-22T01:32:09;100180.66;;;9.82;98.45
54978;BME280;40873;47.522;19.106;2023-04-22T01:34:36;100176.22;;;9.82;97.39
54978;BME280;40873;47.522;19.106;2023-04-22T01:37:05;100178.38;;;9.76;99.07
54978;BME280;40873;47.522;19.106;2023-04-22T01:39:34;100177.31;;;9.64;100.00
54978;BME280;40873;47.522;19.106;2023-04-22T01:42:02;100179.09;;;9.64;100.00
54978;BME280;40873;47.522;19.106;2023-04-22T01:44:29;100179.09;;;9.64;100.00
54978;BME280;40873;47.522;19.106;2023-04-22T01:46:56;100185.47;;;9.59;100.00
54978;BME280;40873;47.522;19.106;2023-04-22T01:49:23;100183.88;;;9.57;100.00
54978;BME280;40873;47.522;19.106;2023-04-22T01:51:50;100179.06;;;9.49;100.00
54978;BME280;40873;47.522;19.106;2023-04-22T01:54:17;100180.09;;;9.47;100.00
54978;BME280;40873;47.522;19.106;2023-04-22T01:56:54;100173.78;;;9.49;100.00
54978;BME280;40873;47.522;19.106;2023-04-22T01:59:20;100186.56;;;9.41;100.00
54978;BME280;40873;47.522;19.106;2023-04-22T02:01:48;100186.72;;;9.38;99.87
54978;BME280;40873;47.522;19.106;2023-04-22T02:04:15;100179.00;;;9.35;100.00
54978;BME280;40873;47.522;19.106;2023-04-22T02:06:42;100174.84;;;9.31;100.00
54978;BME280;40873;47.522;19.106;2023-04-22T02:09:08;100174.09;;;9.29;100.00
54978;BME280;40873;47.522;19.106;2023-04-22T02:11:36;100179.38;;;9.29;100.00
54978;BME280;40873;47.522;19.106;2023-04-22T02:14:02;100185.47;;;9.29;100.00
54978;BME280;40873;47.522;19.106;2023-04-22T02:16:29;100175.59;;;9.19;100.00
54978;BME280;40873;47.522;19.106;2023-04-22T02:18:56;100177.88;;;9.09;100.00
54978;BME280;40873;47.522;19.106;2023-04-22T02:21:24;100177.03;;;9.09;100.00
54978;BME280;40873;47.522;19.106;2023-04-22T02:23:50;100176.44;;;9.03;100.00
54978;BME280;40873;47.522;19.106;2023-04-22T02:26:18;100178.16;;;9.04;100.00
54978;BME280;40873;47.522;19.106;2023-04-22T02:28:44;100178.16;;;9.04;100.00
54978;BME280;40873;47.522;19.106;2023-04-22T02:31:12;100172.94;;;9.03;100.00
54978;BME280;40873;47.522;19.106;2023-04-22T02:33:39;100173.66;;;9.06;100.00
54978;BME280;40873;47.522;19.106;2023-04-22T02:36:06;100179.44;;;8.97;100.00
54978;BME280;40873;47.522;19.106;2023-04-22T02:38:33;100173.66;;;8.91;100.00
54978;BME280;40873;47.522;19.106;2023-04-22T02:41:00;100180.88;;;8.87;100.00
54978;BME280;40873;47.522;19.106;2023-04-22T02:43:27;100181.13;;;8.83;100.00
54978;BME280;40873;47.522;19.106;2023-04-22T02:45:54;100169.84;;;8.81;100.00
54978;BME280;40873;47.522;19.106;2023-04-22T02:48:20;100174.84;;;8.85;100.00
54978;BME280;40873;47.522;19.106;2023-04-22T02:50:48;100170.69;;;8.81;100.00
54978;BME280;40873;47.522;19.106;2023-04-22T02:53:14;100171.03;;;8.75;100.00
54978;BME280;40873;47.522;19.106;2023-04-22T02:55:42;100170.44;;;8.70;100.00
54978;BME280;40873;47.522;19.106;2023-04-22T02:58:09;100172.91;;;8.73;100.00
54978;BME280;40873;47.522;19.106;2023-04-22T03:00:36;100174.59;;;8.74;100.00
54978;BME280;40873;47.522;19.106;2023-04-22T03:03:03;100174.78;;;8.71;100.00
54978;BME280;40873;47.522;19.106;2023-04-22T03:05:30;100172.31;;;8.68;100.00
54978;BME280;40873;47.522;19.106;2023-04-22T03:07:57;100180.28;;;8.66;100.00
54978;BME280;40873;47.522;19.106;2023-04-22T03:10:24;100172.56;;;8.63;100.00
54978;BME280;40873;47.522;19.106;2023-04-22T03:12:51;100174.59;;;8.58;100.00
54978;BME280;40873;47.522;19.106;2023-04-22T03:15:18;100174.09;;;8.51;100.00
54978;BME280;40873;47.522;19.106;2023-04-22T03:17:47;100167.75;;;8.56;100.00
54978;BME280;40873;47.522;19.106;2023-04-22T03:20:15;100170.69;;;8.49;100.00
54978;BME280;40873;47.522;19.106;2023-04-22T03:22:42;100177.31;;;8.57;100.00
54978;BME280;40873;47.522;19.106;2023-04-22T03:25:10;100174.84;;;8.54;100.00
54978;BME280;40873;47.522;19.106;2023-04-22T03:27:37;100178.84;;;8.61;100.00
54978;BME280;40873;47.522;19.106;2023-04-22T03:30:04;100182.56;;;8.57;100.00
54978;BME280;40873;47.522;19.106;2023-04-22T03:32:31;100178.84;;;8.61;100.00
54978;BME280;40873;47.522;19.106;2023-04-22T03:34:59;100180.88;;;8.56;100.00
54978;BME280;40873;47.522;19.106;2023-04-22T03:37:27;100181.63;;;8.58;100.00
54978;BME280;40873;47.522;19.106;2023-04-22T03:39:54;100185.53;;;8.50;100.00
54978;BME280;40873;47.522;19.106;2023-04-22T03:42:20;100189.09;;;8.49;100.00
54978;BME280;40873;47.522;19.106;2023-04-22T03:44:47;100189.94;;;8.50;100.00
54978;BME280;40873;47.522;19.106;2023-04-22T03:47:14;100187.56;;;8.45;100.00
54978;BME280;40873;47.522;19.106;2023-04-22T03:49:42;100183.38;;;8.41;100.00
54978;BME280;40873;47.522;19.106;2023-04-22T03:52:09;100188.50;;;8.44;100.00
54978;BME280;40873;47.522;19.106;2023-04-22T03:54:36;100184.31;;;8.40;100.00
54978;BME280;40873;47.522;19.106;2023-04-22T03:57:03;100180.69;;;8.43;100.00
54978;BME280;40873;47.522;19.106;2023-04-22T03:59:30;100191.22;;;8.43;100.00
54978;BME280;40873;47.522;19.106;2023-04-22T04:01:57;100185.03;;;8.44;100.00
54978;BME280;40873;47.522;19.106;2023-04-22T04:04:24;100192.91;;;8.44;100.00
54978;BME280;40873;47.522;19.106;2023-04-22T04:06:51;100190.44;;;8.41;100.00
54978;BME280;40873;47.522;19.106;2023-04-22T04:09:18;100188.41;;;8.46;100.00
54978;BME280;40873;47.522;19.106;2023-04-22T04:11:45;100189.69;;;8.55;100.00
54978;BME280;40873;47.522;19.106;2023-04-22T04:14:12;100189.53;;;8.58;100.00
54978;BME280;40873;47.522;19.106;2023-04-22T04:16:39;100199.19;;;8.57;100.00
54978;BME280;40873;47.522;19.106;2023-04-22T04:19:06;100205.13;;;8.61;100.00
54978;BME280;40873;47.522;19.106;2023-04-22T04:21:33;100202.25;;;8.65;100.00
54978;BME280;40873;47.522;19.106;2023-04-22T04:24:02;100204.47;;;8.73;100.00
54978;BME280;40873;47.522;19.106;2023-04-22T04:26:29;100213.06;;;8.76;100.00
54978;BME280;40873;47.522;19.106;2023-04-22T04:28:56;100214.22;;;8.71;100.00
54978;BME280;40873;47.522;19.106;2023-04-22T04:31:23;100220.00;;;8.77;100.00
54978;BME280;40873;47.522;19.106;2023-04-22T04:33:50;100227.72;;;8.81;100.00
54978;BME280;40873;47.522;19.106;2023-04-22T04:36:18;100219.47;;;8.87;100.00
54978;BME280;40873;47.522;19.106;2023-04-22T04:38:45;100223.56;;;8.92;100.00
54978;BME280;40873;47.522;19.106;2023-04-22T04:41:13;100221.44;;;8.99;100.00
54978;BME280;40873;47.522;19.106;2023-04-22T04:43:40;100216.59;;;9.07;100.00
54978;BME280;40873;47.522;19.106;2023-04-22T04:46:07;100228.47;;;9.14;100.00
54978;BME280;40873;47.522;19.106;2023-04-22T04:48:34;100216.13;;;9.30;100.00
54978;BME280;40873;47.522;19.106;2023-04-22T04:51:02;100227.00;;;9.40;100.00
54978;BME280;40873;47.522;19.106;2023-04-22T04:53:29;100233.41;;;9.50;100.00
54978;BME280;40873;47.522;19.106;2023-04-22T04:55:56;100227.16;;;9.53;100.00
54978;BME280;40873;47.522;19.106;2023-04-22T04:58:23;100227.81;;;9.56;100.00
54978;BME280;40873;47.522;19.106;2023-04-22T05:00:50;100230.19;;;9.61;100.00
54978;BME280;40873;47.522;19.106;2023-04-22T05:03:17;100219.28;;;9.67;100.00
54978;BME280;40873;47.522;19.106;2023-04-22T05:05:45;100224.00;;;9.76;100.00
54978;BME280;40873;47.522;19.106;2023-04-22T05:08:14;100229.03;;;9.81;100.00
54978;BME280;40873;47.522;19.106;2023-04-22T05:10:40;100231.47;;;9.84;100.00
54978;BME280;40873;47.522;19.106;2023-04-22T05:13:08;100234.09;;;9.84;100.00
54978;BME280;40873;47.522;19.106;2023-04-22T05:15:35;100235.22;;;9.94;100.00
54978;BME280;40873;47.522;19.106;2023-04-22T05:18:03;100235.72;;;10.01;100.00
54978;BME280;40873;47.522;19.106;2023-04-22T05:20:30;100229.44;;;10.03;100.00
54978;BME280;40873;47.522;19.106;2023-04-22T05:23:00;100231.78;;;10.08;100.00
54978;BME280;40873;47.522;19.106;2023-04-22T05:25:27;100234.88;;;10.14;100.00
54978;BME280;40873;47.522;19.106;2023-04-22T05:27:54;100234.38;;;10.24;100.00
54978;BME280;40873;47.522;19.106;2023-04-22T05:30:21;100231.75;;;10.24;100.00
54978;BME280;40873;47.522;19.106;2023-04-22T05:32:48;100232.38;;;10.27;100.00
54978;BME280;40873;47.522;19.106;2023-04-22T05:35:15;100232.03;;;10.33;99.83
54978;BME280;40873;47.522;19.106;2023-04-22T05:37:42;100229.13;;;10.38;98.09
54978;BME280;40873;47.522;19.106;2023-04-22T05:40:09;100237.59;;;10.43;99.33
54978;BME280;40873;47.522;19.106;2023-04-22T05:42:36;100235.22;;;10.53;97.70
54978;BME280;40873;47.522;19.106;2023-04-22T05:45:03;100237.19;;;10.63;97.07
54978;BME280;40873;47.522;19.106;2023-04-22T05:47:30;100235.97;;;10.69;95.32
54978;BME280;40873;47.522;19.106;2023-04-22T05:49:57;100241.69;;;10.76;94.90
54978;BME280;40873;47.522;19.106;2023-04-22T05:52:24;100243.56;;;10.88;94.40
54978;BME280;40873;47.522;19.106;2023-04-22T05:54:51;100248.44;;;11.08;92.16
54978;BME280;40873;47.522;19.106;2023-04-22T05:57:18;100244.19;;;11.33;90.87
54978;BME280;40873;47.522;19.106;2023-04-22T05:59:45;100244.69;;;11.52;89.95
54978;BME280;40873;47.522;19.106;2023-04-22T06:02:12;100249.06;;;11.66;87.00
54978;BME280;40873;47.522;19.106;2023-04-22T06:04:39;100240.81;;;11.85;84.80
54978;BME280;40873;47.522;19.106;2023-04-22T06:07:07;100246.00;;;11.99;84.54
54978;BME280;40873;47.522;19.106;2023-04-22T06:09:34;100248.44;;;12.15;81.03
54978;BME280;40873;47.522;19.106;2023-04-22T06:12:01;100244.97;;;12.27;79.74
54978;BME280;40873;47.522;19.106;2023-04-22T06:14:28;100249.72;;;12.34;78.64
54978;BME280;40873;47.522;19.106;2023-04-22T06:16:55;100251.63;;;12.45;78.55
54978;BME280;40873;47.522;19.106;2023-04-22T06:19:22;100247.25;;;12.57;78.93
54978;BME280;40873;47.522;19.106;2023-04-22T06:21:49;100251.16;;;12.64;78.61
54978;BME280;40873;47.522;19.106;2023-04-22T06:24:16;100252.84;;;12.78;77.63
54978;BME280;40873;47.522;19.106;2023-04-22T06:26:44;100254.75;;;12.88;78.30
54978;BME280;40873;47.522;19.106;2023-04-22T06:29:10;100257.97;;;13.05;74.97
54978;BME280;40873;47.522;19.106;2023-04-22T06:31:38;100259.84;;;13.15;74.24
54978;BME280;40873;47.522;19.106;2023-04-22T06:34:04;100249.25;;;13.28;73.96
54978;BME280;40873;47.522;19.106;2023-04-22T06:36:32;100250.84;;;13.42;73.75
54978;BME280;40873;47.522;19.106;2023-04-22T06:39:05;100254.66;;;13.51;65.38
54978;BME280;40873;47.522;19.106;2023-04-22T06:41:35;100258.56;;;13.69;66.09
54978;BME280;40873;47.522;19.106;2023-04-22T06:44:04;100251.97;;;13.75;62.31
54978;BME280;40873;47.522;19.106;2023-04-22T06:46:31;100255.97;;;13.80;60.50
54978;BME280;40873;47.522;19.106;2023-04-22T06:48:58;100250.13;;;13.99;60.53
54978;BME280;40873;47.522;19.106;2023-04-22T06:51:25;100251.81;;;14.11;62.29
54978;BME280;40873;47.522;19.106;2023-04-22T06:53:52;100244.88;;;14.21;59.04
54978;BME280;40873;47.522;19.106;2023-04-22T06:56:19;100245.63;;;14.35;58.08
54978;BME280;40873;47.522;19.106;2023-04-22T06:58:46;100253.94;;;14.41;56.91
54978;BME280;40873;47.522;19.106;2023-04-22T07:01:13;100244.81;;;14.57;56.78
54978;BME280;40873;47.522;19.106;2023-04-22T07:03:40;100239.38;;;14.69;57.77
54978;BME280;40873;47.522;19.106;2023-04-22T07:06:08;100240.19;;;14.81;56.25
54978;BME280;40873;47.522;19.106;2023-04-22T07:08:35;100244.78;;;14.90;56.00
54978;BME280;40873;47.522;19.106;2023-04-22T07:11:02;100243.22;;;14.99;56.10
54978;BME280;40873;47.522;19.106;2023-04-22T07:13:31;100246.81;;;15.09;50.61
54978;BME280;40873;47.522;19.106;2023-04-22T07:16:00;100251.75;;;15.25;54.97
54978;BME280;40873;47.522;19.106;2023-04-22T07:18:27;100246.75;;;15.31;53.79
54978;BME280;40873;47.522;19.106;2023-04-22T07:20:54;100247.31;;;15.46;53.90
54978;BME280;40873;47.522;19.106;2023-04-22T07:23:21;100247.88;;;15.61;53.53
54978;BME280;40873;47.522;19.106;2023-04-22T07:25:48;100251.47;;;15.71;52.21
54978;BME280;40873;47.522;19.106;2023-04-22T07:28:15;100247.72;;;15.74;47.40
54978;BME280;40873;47.522;19.106;2023-04-22T07:30:42;100251.28;;;15.84;47.14
54978;BME280;40873;47.522;19.106;2023-04-22T07:33:09;100256.81;;;16.13;46.77
54978;BME280;40873;47.522;19.106;2023-04-22T07:35:36;100247.09;;;16.23;46.27
54978;BME280;40873;47.522;19.106;2023-04-22T07:38:03;100241.59;;;16.45;46.32
54978;BME280;40873;47.522;19.106;2023-04-22T07:40:30;100253.16;;;16.56;48.28
54978;BME280;40873;47.522;19.106;2023-04-22T07:42:57;100249.09;;;16.61;45.08
54978;BME280;40873;47.522;19.106;2023-04-22T07:45:24;100257.66;;;16.65;46.96
54978;BME280;40873;47.522;19.106;2023-04-22T07:47:51;100243.56;;;16.74;47.83
54978;BME280;40873;47.522;19.106;2023-04-22T07:50:18;100247.81;;;16.86;47.06
54978;BME280;40873;47.522;19.106;2023-04-22T07:52:45;100255.88;;;17.06;46.17
54978;BME280;40873;47.522;19.106;2023-04-22T07:55:12;100251.16;;;17.19;44.46
54978;BME280;40873;47.522;19.106;2023-04-22T07:57:39;100246.66;;;17.29;44.33
54978;BME280;40873;47.522;19.106;2023-04-22T08:00:08;100247.53;;;17.49;45.57
54978;BME280;40873;47.522;19.106;2023-04-22T08:02:35;100247.13;;;17.53;46.30
54978;BME280;40873;47.522;19.106;2023-04-22T08:05:02;100244.34;;;17.74;45.81
54978;BME280;40873;47.522;19.106;2023-04-22T08:07:29;100245.44;;;17.91;45.22
54978;BME280;40873;47.522;19.106;2023-04-22T08:09:59;100238.78;;;18.15;44.31
54978;BME280;40873;47.522;19.106;2023-04-22T08:12:26;100240.09;;;18.11;41.30
54978;BME280;40873;47.522;19.106;2023-04-22T08:14:53;100238.00;;;17.95;42.06
54978;BME280;40873;47.522;19.106;2023-04-22T08:17:20;100246.28;;;17.92;40.55
54978;BME280;40873;47.522;19.106;2023-04-22T08:19:48;100242.91;;;18.09;40.68
54978;BME280;40873;47.522;19.106;2023-04-22T08:22:15;100242.97;;;18.37;40.71
54978;BME280;40873;47.522;19.106;2023-04-22T08:24:44;100235.22;;;18.43;39.26
54978;BME280;40873;47.522;19.106;2023-04-22T08:27:11;100240.22;;;18.56;39.70
54978;BME280;40873;47.522;19.106;2023-04-22T08:29:38;100239.78;;;18.70;41.59
54978;BME280;40873;47.522;19.106;2023-04-22T08:32:05;100235.97;;;19.00;39.33
54978;BME280;40873;47.522;19.106;2023-04-22T08:34:32;100246.41;;;19.21;39.06
54978;BME280;40873;47.522;19.106;2023-04-22T08:36:59;100233.44;;;19.26;38.89
54978;BME280;40873;47.522;19.106;2023-04-22T08:39:26;100235.88;;;19.37;38.55
54978;BME280;40873;47.522;19.106;2023-04-22T08:41:54;100243.69;;;19.49;37.57
54978;BME280;40873;47.522;19.106;2023-04-22T08:44:22;100239.41;;;19.56;36.28
54978;BME280;40873;47.522;19.106;2023-04-22T08:46:50;100237.97;;;19.79;37.24
54978;BME280;40873;47.522;19.106;2023-04-22T08:49:18;100238.72;;;19.89;37.14
54978;BME280;40873;47.522;19.106;2023-04-22T08:51:45;100223.25;;;20.01;36.72
54978;BME280;40873;47.522;19.106;2023-04-22T08:54:12;100231.81;;;20.05;34.88
54978;BME280;40873;47.522;19.106;2023-04-22T08:56:40;100240.78;;;20.21;34.12
54978;BME280;40873;47.522;19.106;2023-04-22T08:59:12;100230.28;;;20.28;33.47
54978;BME280;40873;47.522;19.106;2023-04-22T09:01:40;100226.63;;;20.03;33.19
54978;BME280;40873;47.522;19.106;2023-04-22T09:04:13;100232.28;;;19.47;34.35
54978;BME280;40873;47.522;19.106;2023-04-22T09:06:41;100225.44;;;19.62;34.94
54978;BME280;40873;47.522;19.106;2023-04-22T09:09:08;100230.38;;;19.21;34.81
54978;BME280;40873;47.522;19.106;2023-04-22T09:11:36;100226.69;;;19.22;34.82
54978;BME280;40873;47.522;19.106;2023-04-22T09:14:03;100220.91;;;19.80;34.80
54978;BME280;40873;47.522;19.106;2023-04-22T09:16:38;100223.97;;;19.85;33.01
54978;BME280;40873;47.522;19.106;2023-04-22T09:19:10;100225.50;;;20.14;32.67
54978;BME280;40873;47.522;19.106;2023-04-22T09:21:39;100223.41;;;20.25;32.77
54978;BME280;40873;47.522;19.106;2023-04-22T09:24:10;100226.22;;;20.76;35.44
54978;BME280;40873;47.522;19.106;2023-04-22T09:26:39;100221.09;;;20.91;31.79
54978;BME280;40873;47.522;19.106;2023-04-22T09:29:12;100230.91;;;21.24;30.61
54978;BME280;40873;47.522;19.106;2023-04-22T09:31:39;100221.59;;;21.53;31.40
54978;BME280;40873;47.522;19.106;2023-04-22T09:34:07;100227.31;;;21.91;32.62
54978;BME280;40873;47.522;19.106;2023-04-22T09:36:34;100221.28;;;22.13;32.23
54978;BME280;40873;47.522;19.106;2023-04-22T09:39:05;100217.06;;;22.27;30.64
54978;BME280;40873;47.522;19.106;2023-04-22T09:41:37;100214.97;;;22.45;31.43
54978;BME280;40873;47.522;19.106;2023-04-22T09:44:10;100216.53;;;22.31;30.45
54978;BME280;40873;47.522;19.106;2023-04-22T09:46:41;100215.88;;;22.29;31.25
54978;BME280;40873;47.522;19.106;2023-04-22T09:49:09;100207.00;;;21.64;30.38
54978;BME280;40873;47.522;19.106;2023-04-22T09:51:39;100203.16;;;21.66;31.68
54978;BME280;40873;47.522;19.106;2023-04-22T09:54:09;100205.72;;;21.09;32.79
54978;BME280;40873;47.522;19.106;2023-04-22T09:56:49;100204.41;;;20.71;33.41
54978;BME280;40873;47.522;19.106;2023-04-22T09:59:21;100201.75;;;21.21;31.83
54978;BME280;40873;47.522;19.106;2023-04-22T10:01:54;100192.06;;;21.53;31.28
54978;BME280;40873;47.522;19.106;2023-04-22T10:04:21;100196.28;;;21.72;30.34
54978;BME280;40873;47.522;19.106;2023-04-22T10:06:51;100187.97;;;22.30;30.71
54978;BME280;40873;47.522;19.106;2023-04-22T10:09:21;100187.50;;;22.66;30.40
54978;BME280;40873;47.522;19.106;2023-04-22T10:11:56;100187.91;;;23.02;30.17
54978;BME280;40873;47.522;19.106;2023-04-22T10:14:27;100184.81;;;22.74;29.21
54978;BME280;40873;47.522;19.106;2023-04-22T10:16:58;100176.13;;;23.03;28.82
54978;BME280;40873;47.522;19.106;2023-04-22T10:19:27;100173.84;;;22.84;29.10
54978;BME280;40873;47.522;19.106;2023-04-22T10:22:00;100174.94;;;22.58;30.65
54978;BME280;40873;47.522;19.106;2023-04-22T10:24:34;100166.84;;;22.66;30.23
54978;BME280;40873;47.522;19.106;2023-04-22T10:27:03;100173.84;;;22.84;31.13
54978;BME280;40873;47.522;19.106;2023-04-22T10:29:38;100175.81;;;22.98;28.25
54978;BME280;40873;47.522;19.106;2023-04-22T10:34:37;100164.66;;;23.32;29.21
54978;BME280;40873;47.522;19.106;2023-04-22T10:37:11;100169.81;;;23.57;27.91
54978;BME280;40873;47.522;19.106;2023-04-22T10:39:40;100162.25;;;23.60;29.21
54978;BME280;40873;47.522;19.106;2023-04-22T10:42:10;100158.16;;;22.95;27.46
54978;BME280;40873;47.522;19.106;2023-04-22T10:45:15;100155.25;;;23.74;29.06
54978;BME280;40873;47.522;19.106;2023-04-22T10:47:42;100154.34;;;23.96;29.49
54978;BME280;40873;47.522;19.106;2023-04-22T10:50:24;100144.06;;;24.29;27.40
54978;BME280;40873;47.522;19.106;2023-04-22T10:52:59;100153.69;;;24.68;28.08
54978;BME280;40873;47.522;19.106;2023-04-22T10:55:53;100143.25;;;24.44;25.46
54978;BME280;40873;47.522;19.106;2023-04-22T10:58:23;100149.44;;;24.59;28.24
54978;BME280;40873;47.522;19.106;2023-04-22T11:00:52;100145.94;;;24.44;27.45
54978;BME280;40873;47.522;19.106;2023-04-22T11:03:29;100147.22;;;24.18;27.72
54978;BME280;40873;47.522;19.106;2023-04-22T11:06:14;100146.66;;;24.23;27.75
54978;BME280;40873;47.522;19.106;2023-04-22T11:08:48;100144.69;;;24.17;26.18
54978;BME280;40873;47.522;19.106;2023-04-22T11:11:17;100133.06;;;24.60;27.09
54978;BME280;40873;47.522;19.106;2023-04-22T11:13:46;100138.53;;;24.67;26.91
54978;BME280;40873;47.522;19.106;2023-04-22T11:16:16;100144.91;;;25.10;25.60
54978;BME280;40873;47.522;19.106;2023-04-22T11:18:45;100143.03;;;24.96;26.24
54978;BME280;40873;47.522;19.106;2023-04-22T11:21:13;100135.25;;;25.23;26.45
54978;BME280;40873;47.522;19.106;2023-04-22T11:23:49;100143.69;;;24.98;26.92
54978;BME280;40873;47.522;19.106;2023-04-22T11:26:17;100134.63;;;25.21;27.31
54978;BME280;40873;47.522;19.106;2023-04-22T11:28:47;100127.69;;;25.33;26.11
54978;BME280;40873;47.522;19.106;2023-04-22T11:31:14;100135.84;;;25.18;26.28
54978;BME280;40873;47.522;19.106;2023-04-22T11:33:41;100139.56;;;25.60;25.91
54978;BME280;40873;47.522;19.106;2023-04-22T11:36:10;100128.22;;;25.50;25.00
54978;BME280;40873;47.522;19.106;2023-04-22T11:38:37;100136.72;;;25.96;25.78
54978;BME280;40873;47.522;19.106;2023-04-22T11:41:04;100130.59;;;26.09;25.54
54978;BME280;40873;47.522;19.106;2023-04-22T11:43:31;100127.53;;;26.25;24.49
54978;BME280;40873;47.522;19.106;2023-04-22T11:45:58;100130.44;;;25.18;24.47
54978;BME280;40873;47.522;19.106;2023-04-22T11:48:25;100136.00;;;24.80;26.39
54978;BME280;40873;47.522;19.106;2023-04-22T11:51:07;100136.06;;;24.21;25.99
54978;BME280;40873;47.522;19.106;2023-04-22T11:53:35;100133.41;;;23.84;27.36
54978;BME280;40873;47.522;19.106;2023-04-22T11:56:03;100141.50;;;23.46;26.38
54978;BME280;40873;47.522;19.106;2023-04-22T11:58:29;100138.38;;;23.11;26.94
54978;BME280;40873;47.522;19.106;2023-04-22T12:00:58;100133.00;;;23.11;26.84
54978;BME280;40873;47.522;19.106;2023-04-22T12:03:29;100136.84;;;22.86;28.82
54978;BME280;40873;47.522;19.106;2023-04-22T12:05:59;100132.91;;;22.65;27.56
54978;BME280;40873;47.522;19.106;2023-04-22T12:08:31;100137.50;;;22.57;27.46
54978;BME280;40873;47.522;19.106;2023-04-22T12:11:01;100134.75;;;22.65;28.06
54978;BME280;40873;47.522;19.106;2023-04-22T12:16:08;100125.09;;;24.08;26.16
54978;BME280;40873;47.522;19.106;2023-04-22T12:18:40;100128.25;;;24.26;24.96
54978;BME280;40873;47.522;19.106;2023-04-22T12:21:08;100121.75;;;24.86;25.28
54978;BME280;40873;47.522;19.106;2023-04-22T12:23:45;100116.69;;;25.62;24.47
54978;BME280;40873;47.522;19.106;2023-04-22T12:26:15;100117.81;;;24.68;23.87
54978;BME280;40873;47.522;19.106;2023-04-22T12:28:43;100121.78;;;24.36;24.33
54978;BME280;40873;47.522;19.106;2023-04-22T12:31:11;100120.22;;;25.63;24.84
54978;BME280;40873;47.522;19.106;2023-04-22T12:33:39;100106.75;;;25.91;23.60
54978;BME280;40873;47.522;19.106;2023-04-22T12:36:06;100109.56;;;26.45;23.44
54978;BME280;40873;47.522;19.106;2023-04-22T12:38:34;100117.22;;;26.90;22.35
54978;BME280;40873;47.522;19.106;2023-04-22T12:41:03;100107.81;;;26.72;23.50
54978;BME280;40873;47.522;19.106;2023-04-22T12:43:31;100110.97;;;25.51;23.54
54978;BME280;40873;47.522;19.106;2023-04-22T12:46:06;100103.19;;;24.77;24.70
54978;BME280;40873;47.522;19.106;2023-04-22T12:48:34;100092.69;;;25.46;25.18
54978;BME280;40873;47.522;19.106;2023-04-22T12:51:04;100102.25;;;25.49;24.18